sensor_id;sensor_type;location;lat;lon;timestamp;P1;durP1;ratioP1;P2;durP2;ratioP2
79668;SDS011;69136;52.614;6.976;2023-06-19T00:00:07;7.13;;;5.72;;
79668;SDS011;69136;52.614;6.976;2023-06-19T00:03:00;7.78;;;5.70;;
79668;SDS011;69136;52.614;6.976;2023-06-19T00:05:44;7.50;;;6.40;;
79668;SDS011;69136;52.614;6.976;2023-06-19T00:08:28;7.55;;;6.07;;
79668;SDS011;69136;52.614;6.976;2023-06-19T00:11:12;8.73;;;6.32;;
79668;SDS011;69136;52.614;6.976;2023-06-19T00:13:56;7.25;;;6.20;;
79668;SDS011;69136;52.614;6.976;2023-06-19T00:16:40;7.20;;;5.97;;
79668;SDS011;69136;52.614;6.976;2023-06-19T00:19:25;7.85;;;6.32;;
79668;SDS011;69136;52.614;6.976;2023-06-19T00:22:09;7.07;;;5.72;;
79668;SDS011;69136;52.614;6.976;2023-06-19T00:24:52;9.88;;;6.70;;
79668;SDS011;69136;52.614;6.976;2023-06-19T00:27:37;7.20;;;6.35;;
79668;SDS011;69136;52.614;6.976;2023-06-19T00:30:21;8.07;;;6.22;;
79668;SDS011;69136;52.614;6.976;2023-06-19T00:33:05;7.88;;;6.50;;
79668;SDS011;69136;52.614;6.976;2023-06-19T00:35:51;8.80;;;6.22;;
79668;SDS011;69136;52.614;6.976;2023-06-19T00:38:35;7.93;;;6.80;;
79668;SDS011;69136;52.614;6.976;2023-06-19T00:41:19;7.00;;;5.93;;
79668;SDS011;69136;52.614;6.976;2023-06-19T00:44:03;7.72;;;6.82;;
79668;SDS011;69136;52.614;6.976;2023-06-19T00:46:49;7.22;;;6.00;;
79668;SDS011;69136;52.614;6.976;2023-06-19T00:49:35;9.35;;;6.13;;
79668;SDS011;69136;52.614;6.976;2023-06-19T00:52:19;7.05;;;5.93;;
79668;SDS011;69136;52.614;6.976;2023-06-19T00:55:03;8.18;;;5.68;;
79668;SDS011;69136;52.614;6.976;2023-06-19T00:57:49;8.55;;;6.97;;
79668;SDS011;69136;52.614;6.976;2023-06-19T01:00:35;8.55;;;6.53;;
79668;SDS011;69136;52.614;6.976;2023-06-19T01:03:19;8.05;;;6.15;;
79668;SDS011;69136;52.614;6.976;2023-06-19T01:06:05;9.00;;;6.75;;
79668;SDS011;69136;52.614;6.976;2023-06-19T01:09:04;8.18;;;6.32;;
79668;SDS011;69136;52.614;6.976;2023-06-19T01:11:50;7.32;;;6.15;;
79668;SDS011;69136;52.614;6.976;2023-06-19T01:15:11;7.75;;;6.80;;
79668;SDS011;69136;52.614;6.976;2023-06-19T01:17:49;7.75;;;6.28;;
79668;SDS011;69136;52.614;6.976;2023-06-19T01:20:33;7.80;;;6.50;;
79668;SDS011;69136;52.614;6.976;2023-06-19T01:23:18;8.80;;;6.63;;
79668;SDS011;69136;52.614;6.976;2023-06-19T01:26:02;8.52;;;6.72;;
79668;SDS011;69136;52.614;6.976;2023-06-19T01:28:46;13.07;;;6.65;;
79668;SDS011;69136;52.614;6.976;2023-06-19T01:31:33;7.85;;;6.70;;
79668;SDS011;69136;52.614;6.976;2023-06-19T01:34:20;7.70;;;6.45;;
79668;SDS011;69136;52.614;6.976;2023-06-19T01:37:05;7.93;;;6.32;;
79668;SDS011;69136;52.614;6.976;2023-06-19T01:39:51;8.15;;;6.85;;
79668;SDS011;69136;52.614;6.976;2023-06-19T01:42:37;7.53;;;6.20;;
79668;SDS011;69136;52.614;6.976;2023-06-19T01:45:21;7.03;;;6.32;;
79668;SDS011;69136;52.614;6.976;2023-06-19T01:48:07;7.95;;;6.47;;
79668;SDS011;69136;52.614;6.976;2023-06-19T01:50:51;8.50;;;6.20;;
79668;SDS011;69136;52.614;6.976;2023-06-19T01:53:36;7.72;;;6.35;;
79668;SDS011;69136;52.614;6.976;2023-06-19T01:56:20;8.38;;;7.05;;
79668;SDS011;69136;52.614;6.976;2023-06-19T01:59:04;9.60;;;6.97;;
79668;SDS011;69136;52.614;6.976;2023-06-19T02:01:47;10.02;;;7.03;;
79668;SDS011;69136;52.614;6.976;2023-06-19T02:04:32;10.70;;;7.07;;
79668;SDS011;69136;52.614;6.976;2023-06-19T02:07:17;11.27;;;6.78;;
79668;SDS011;69136;52.614;6.976;2023-06-19T02:10:01;9.75;;;6.82;;
79668;SDS011;69136;52.614;6.976;2023-06-19T02:12:45;11.90;;;7.10;;
79668;SDS011;69136;52.614;6.976;2023-06-19T02:15:29;13.05;;;7.72;;
79668;SDS011;69136;52.614;6.976;2023-06-19T02:18:14;8.60;;;6.60;;
79668;SDS011;69136;52.614;6.976;2023-06-19T02:20:59;10.75;;;6.93;;
79668;SDS011;69136;52.614;6.976;2023-06-19T02:23:43;9.07;;;6.13;;
79668;SDS011;69136;52.614;6.976;2023-06-19T02:26:27;7.22;;;6.40;;
79668;SDS011;69136;52.614;6.976;2023-06-19T02:29:13;7.45;;;6.22;;
79668;SDS011;69136;52.614;6.976;2023-06-19T02:31:57;7.53;;;6.25;;
79668;SDS011;69136;52.614;6.976;2023-06-19T02:34:41;7.85;;;5.82;;
79668;SDS011;69136;52.614;6.976;2023-06-19T02:37:25;6.93;;;5.70;;
79668;SDS011;69136;52.614;6.976;2023-06-19T02:40:10;7.03;;;5.80;;
79668;SDS011;69136;52.614;6.976;2023-06-19T02:42:54;6.95;;;6.05;;
79668;SDS011;69136;52.614;6.976;2023-06-19T02:45:38;7.55;;;6.07;;
79668;SDS011;69136;52.614;6.976;2023-06-19T02:48:22;9.50;;;6.05;;
79668;SDS011;69136;52.614;6.976;2023-06-19T02:51:06;7.70;;;5.85;;
79668;SDS011;69136;52.614;6.976;2023-06-19T02:53:50;7.15;;;6.13;;
79668;SDS011;69136;52.614;6.976;2023-06-19T02:56:35;7.38;;;5.80;;
79668;SDS011;69136;52.614;6.976;2023-06-19T02:59:18;6.07;;;5.15;;
79668;SDS011;69136;52.614;6.976;2023-06-19T03:02:02;6.60;;;6.00;;
79668;SDS011;69136;52.614;6.976;2023-06-19T03:04:47;8.20;;;6.28;;
79668;SDS011;69136;52.614;6.976;2023-06-19T03:07:31;6.28;;;5.13;;
79668;SDS011;69136;52.614;6.976;2023-06-19T03:10:15;7.97;;;5.57;;
79668;SDS011;69136;52.614;6.976;2023-06-19T03:13:00;7.00;;;5.55;;
79668;SDS011;69136;52.614;6.976;2023-06-19T03:15:45;9.50;;;5.60;;
79668;SDS011;69136;52.614;6.976;2023-06-19T03:18:29;6.72;;;5.15;;
79668;SDS011;69136;52.614;6.976;2023-06-19T03:21:14;6.13;;;5.40;;
79668;SDS011;69136;52.614;6.976;2023-06-19T03:24:00;6.53;;;5.18;;
79668;SDS011;69136;52.614;6.976;2023-06-19T03:26:44;5.68;;;5.18;;
79668;SDS011;69136;52.614;6.976;2023-06-19T03:29:27;6.43;;;5.38;;
79668;SDS011;69136;52.614;6.976;2023-06-19T03:32:22;6.18;;;5.20;;
79668;SDS011;69136;52.614;6.976;2023-06-19T03:35:07;7.60;;;5.30;;
79668;SDS011;69136;52.614;6.976;2023-06-19T03:37:57;5.95;;;4.95;;
79668;SDS011;69136;52.614;6.976;2023-06-19T03:40:41;6.50;;;5.78;;
79668;SDS011;69136;52.614;6.976;2023-06-19T03:43:30;5.85;;;5.25;;
79668;SDS011;69136;52.614;6.976;2023-06-19T03:46:14;6.15;;;5.05;;
79668;SDS011;69136;52.614;6.976;2023-06-19T03:48:58;8.15;;;5.40;;
79668;SDS011;69136;52.614;6.976;2023-06-19T03:51:42;6.50;;;5.00;;
79668;SDS011;69136;52.614;6.976;2023-06-19T03:54:26;8.20;;;5.10;;
79668;SDS011;69136;52.614;6.976;2023-06-19T03:57:10;6.03;;;4.68;;
79668;SDS011;69136;52.614;6.976;2023-06-19T03:59:54;6.43;;;5.03;;
79668;SDS011;69136;52.614;6.976;2023-06-19T04:02:40;6.22;;;4.82;;
79668;SDS011;69136;52.614;6.976;2023-06-19T04:05:24;6.82;;;4.57;;
79668;SDS011;69136;52.614;6.976;2023-06-19T04:08:09;5.60;;;4.68;;
79668;SDS011;69136;52.614;6.976;2023-06-19T04:10:53;8.38;;;5.03;;
79668;SDS011;69136;52.614;6.976;2023-06-19T04:13:37;7.88;;;4.63;;
79668;SDS011;69136;52.614;6.976;2023-06-19T04:16:21;5.85;;;4.93;;
79668;SDS011;69136;52.614;6.976;2023-06-19T04:19:06;6.35;;;4.55;;
79668;SDS011;69136;52.614;6.976;2023-06-19T04:21:50;7.35;;;4.65;;
79668;SDS011;69136;52.614;6.976;2023-06-19T04:24:34;6.78;;;4.50;;
79668;SDS011;69136;52.614;6.976;2023-06-19T04:27:19;6.43;;;4.50;;
79668;SDS011;69136;52.614;6.976;2023-06-19T04:30:03;5.18;;;4.28;;
79668;SDS011;69136;52.614;6.976;2023-06-19T04:32:48;5.50;;;4.40;;
79668;SDS011;69136;52.614;6.976;2023-06-19T04:35:32;5.65;;;4.45;;
79668;SDS011;69136;52.614;6.976;2023-06-19T04:38:24;5.72;;;3.95;;
79668;SDS011;69136;52.614;6.976;2023-06-19T04:41:07;6.53;;;4.32;;
79668;SDS011;69136;52.614;6.976;2023-06-19T04:43:51;6.90;;;4.18;;
79668;SDS011;69136;52.614;6.976;2023-06-19T04:46:35;5.55;;;4.10;;
79668;SDS011;69136;52.614;6.976;2023-06-19T04:49:21;5.47;;;4.38;;
79668;SDS011;69136;52.614;6.976;2023-06-19T04:52:05;4.50;;;3.72;;
79668;SDS011;69136;52.614;6.976;2023-06-19T04:54:50;5.97;;;3.83;;
79668;SDS011;69136;52.614;6.976;2023-06-19T04:57:34;6.20;;;4.30;;
79668;SDS011;69136;52.614;6.976;2023-06-19T05:00:18;5.65;;;3.88;;
79668;SDS011;69136;52.614;6.976;2023-06-19T05:03:07;5.75;;;4.28;;
79668;SDS011;69136;52.614;6.976;2023-06-19T05:05:51;4.75;;;3.88;;
79668;SDS011;69136;52.614;6.976;2023-06-19T05:08:35;6.28;;;3.90;;
79668;SDS011;69136;52.614;6.976;2023-06-19T05:11:19;5.72;;;3.90;;
79668;SDS011;69136;52.614;6.976;2023-06-19T05:14:03;5.90;;;4.10;;
79668;SDS011;69136;52.614;6.976;2023-06-19T05:16:47;5.90;;;3.40;;
79668;SDS011;69136;52.614;6.976;2023-06-19T05:19:31;5.35;;;3.58;;
79668;SDS011;69136;52.614;6.976;2023-06-19T05:22:15;6.03;;;3.92;;
79668;SDS011;69136;52.614;6.976;2023-06-19T05:25:01;5.07;;;3.90;;
79668;SDS011;69136;52.614;6.976;2023-06-19T05:27:45;4.47;;;3.83;;
79668;SDS011;69136;52.614;6.976;2023-06-19T05:30:29;4.80;;;3.75;;
79668;SDS011;69136;52.614;6.976;2023-06-19T05:33:13;3.75;;;3.38;;
79668;SDS011;69136;52.614;6.976;2023-06-19T05:35:59;6.05;;;3.83;;
79668;SDS011;69136;52.614;6.976;2023-06-19T05:38:43;5.47;;;3.08;;
79668;SDS011;69136;52.614;6.976;2023-06-19T05:41:27;4.15;;;3.28;;
79668;SDS011;69136;52.614;6.976;2023-06-19T05:44:11;4.28;;;3.10;;
79668;SDS011;69136;52.614;6.976;2023-06-19T05:46:59;4.32;;;2.78;;
79668;SDS011;69136;52.614;6.976;2023-06-19T05:49:43;3.80;;;2.53;;
79668;SDS011;69136;52.614;6.976;2023-06-19T05:52:27;5.15;;;2.50;;
79668;SDS011;69136;52.614;6.976;2023-06-19T05:55:11;3.95;;;2.85;;
79668;SDS011;69136;52.614;6.976;2023-06-19T05:57:56;4.28;;;2.85;;
79668;SDS011;69136;52.614;6.976;2023-06-19T06:00:39;4.40;;;2.65;;
79668;SDS011;69136;52.614;6.976;2023-06-19T06:03:26;3.92;;;2.50;;
79668;SDS011;69136;52.614;6.976;2023-06-19T06:06:12;4.68;;;3.08;;
79668;SDS011;69136;52.614;6.976;2023-06-19T06:08:55;4.47;;;2.90;;
79668;SDS011;69136;52.614;6.976;2023-06-19T06:11:39;3.47;;;2.65;;
79668;SDS011;69136;52.614;6.976;2023-06-19T06:14:23;3.58;;;2.85;;
79668;SDS011;69136;52.614;6.976;2023-06-19T06:17:07;4.97;;;3.05;;
79668;SDS011;69136;52.614;6.976;2023-06-19T06:19:51;5.25;;;3.10;;
79668;SDS011;69136;52.614;6.976;2023-06-19T06:22:35;5.63;;;3.20;;
79668;SDS011;69136;52.614;6.976;2023-06-19T06:25:19;3.38;;;3.00;;
79668;SDS011;69136;52.614;6.976;2023-06-19T06:28:03;3.47;;;2.47;;
79668;SDS011;69136;52.614;6.976;2023-06-19T06:30:47;4.65;;;2.63;;
79668;SDS011;69136;52.614;6.976;2023-06-19T06:33:31;3.22;;;2.63;;
79668;SDS011;69136;52.614;6.976;2023-06-19T06:36:15;3.75;;;2.55;;
79668;SDS011;69136;52.614;6.976;2023-06-19T06:38:59;4.28;;;3.35;;
79668;SDS011;69136;52.614;6.976;2023-06-19T06:41:43;8.20;;;2.70;;
79668;SDS011;69136;52.614;6.976;2023-06-19T06:44:30;3.42;;;2.90;;
79668;SDS011;69136;52.614;6.976;2023-06-19T06:47:14;3.72;;;3.13;;
79668;SDS011;69136;52.614;6.976;2023-06-19T06:49:58;4.13;;;2.90;;
79668;SDS011;69136;52.614;6.976;2023-06-19T06:52:42;5.32;;;3.53;;
79668;SDS011;69136;52.614;6.976;2023-06-19T06:55:26;5.30;;;3.10;;
79668;SDS011;69136;52.614;6.976;2023-06-19T06:58:10;3.10;;;2.63;;
79668;SDS011;69136;52.614;6.976;2023-06-19T07:00:56;3.75;;;2.80;;
79668;SDS011;69136;52.614;6.976;2023-06-19T07:03:40;4.80;;;3.03;;
79668;SDS011;69136;52.614;6.976;2023-06-19T07:06:25;5.15;;;3.17;;
79668;SDS011;69136;52.614;6.976;2023-06-19T07:09:09;3.65;;;2.92;;
79668;SDS011;69136;52.614;6.976;2023-06-19T07:11:53;4.18;;;2.97;;
79668;SDS011;69136;52.614;6.976;2023-06-19T07:14:38;3.75;;;3.40;;
79668;SDS011;69136;52.614;6.976;2023-06-19T07:17:22;4.97;;;2.70;;
79668;SDS011;69136;52.614;6.976;2023-06-19T07:20:06;6.18;;;3.22;;
79668;SDS011;69136;52.614;6.976;2023-06-19T07:22:51;3.78;;;2.85;;
79668;SDS011;69136;52.614;6.976;2023-06-19T07:25:36;4.43;;;3.20;;
79668;SDS011;69136;52.614;6.976;2023-06-19T07:28:20;3.78;;;2.95;;
79668;SDS011;69136;52.614;6.976;2023-06-19T07:31:04;3.95;;;3.10;;
79668;SDS011;69136;52.614;6.976;2023-06-19T07:33:48;5.63;;;3.45;;
79668;SDS011;69136;52.614;6.976;2023-06-19T07:36:32;4.72;;;3.22;;
79668;SDS011;69136;52.614;6.976;2023-06-19T07:39:16;5.32;;;3.55;;
79668;SDS011;69136;52.614;6.976;2023-06-19T07:42:00;4.53;;;3.70;;
79668;SDS011;69136;52.614;6.976;2023-06-19T07:44:44;5.18;;;3.42;;
79668;SDS011;69136;52.614;6.976;2023-06-19T07:47:28;3.50;;;3.20;;
79668;SDS011;69136;52.614;6.976;2023-06-19T07:50:12;4.63;;;3.80;;
79668;SDS011;69136;52.614;6.976;2023-06-19T07:52:57;3.70;;;3.08;;
79668;SDS011;69136;52.614;6.976;2023-06-19T07:55:41;4.13;;;3.22;;
79668;SDS011;69136;52.614;6.976;2023-06-19T07:58:25;4.53;;;3.40;;
79668;SDS011;69136;52.614;6.976;2023-06-19T08:01:09;4.80;;;3.97;;
79668;SDS011;69136;52.614;6.976;2023-06-19T08:03:54;4.95;;;3.70;;
79668;SDS011;69136;52.614;6.976;2023-06-19T08:06:38;5.72;;;4.43;;
79668;SDS011;69136;52.614;6.976;2023-06-19T08:09:22;6.60;;;4.45;;
79668;SDS011;69136;52.614;6.976;2023-06-19T08:12:06;6.03;;;4.45;;
79668;SDS011;69136;52.614;6.976;2023-06-19T08:14:51;6.25;;;4.40;;
79668;SDS011;69136;52.614;6.976;2023-06-19T08:17:35;7.30;;;4.45;;
79668;SDS011;69136;52.614;6.976;2023-06-19T08:20:20;5.80;;;4.50;;
79668;SDS011;69136;52.614;6.976;2023-06-19T08:23:04;5.45;;;4.15;;
79668;SDS011;69136;52.614;6.976;2023-06-19T08:25:48;5.45;;;4.40;;
79668;SDS011;69136;52.614;6.976;2023-06-19T08:28:33;5.05;;;4.25;;
79668;SDS011;69136;52.614;6.976;2023-06-19T08:31:17;5.80;;;4.47;;
79668;SDS011;69136;52.614;6.976;2023-06-19T08:34:01;6.45;;;4.50;;
79668;SDS011;69136;52.614;6.976;2023-06-19T08:36:51;5.35;;;4.32;;
79668;SDS011;69136;52.614;6.976;2023-06-19T08:39:35;4.50;;;3.75;;
79668;SDS011;69136;52.614;6.976;2023-06-19T08:42:23;4.47;;;3.60;;
79668;SDS011;69136;52.614;6.976;2023-06-19T08:45:07;5.40;;;3.88;;
79668;SDS011;69136;52.614;6.976;2023-06-19T08:47:58;5.03;;;3.72;;
79668;SDS011;69136;52.614;6.976;2023-06-19T08:50:43;4.43;;;3.70;;
79668;SDS011;69136;52.614;6.976;2023-06-19T08:53:27;7.47;;;4.10;;
79668;SDS011;69136;52.614;6.976;2023-06-19T08:56:11;5.57;;;3.65;;
79668;SDS011;69136;52.614;6.976;2023-06-19T08:58:55;4.15;;;3.35;;
79668;SDS011;69136;52.614;6.976;2023-06-19T09:01:39;4.57;;;3.35;;
79668;SDS011;69136;52.614;6.976;2023-06-19T09:04:24;4.93;;;3.70;;
79668;SDS011;69136;52.614;6.976;2023-06-19T09:07:11;6.72;;;3.60;;
79668;SDS011;69136;52.614;6.976;2023-06-19T09:10:10;4.07;;;3.40;;
79668;SDS011;69136;52.614;6.976;2023-06-19T09:12:58;4.90;;;3.10;;
79668;SDS011;69136;52.614;6.976;2023-06-19T09:15:43;4.68;;;3.38;;
79668;SDS011;69136;52.614;6.976;2023-06-19T09:18:31;4.97;;;2.85;;
79668;SDS011;69136;52.614;6.976;2023-06-19T09:21:30;3.88;;;3.45;;
79668;SDS011;69136;52.614;6.976;2023-06-19T09:24:15;4.35;;;3.40;;
79668;SDS011;69136;52.614;6.976;2023-06-19T09:27:09;4.50;;;3.85;;
79668;SDS011;69136;52.614;6.976;2023-06-19T09:29:57;3.25;;;2.95;;
79668;SDS011;69136;52.614;6.976;2023-06-19T09:32:41;4.85;;;3.33;;
79668;SDS011;69136;52.614;6.976;2023-06-19T09:35:25;4.70;;;3.30;;
79668;SDS011;69136;52.614;6.976;2023-06-19T09:38:13;5.70;;;3.70;;
79668;SDS011;69136;52.614;6.976;2023-06-19T09:41:00;5.30;;;3.88;;
79668;SDS011;69136;52.614;6.976;2023-06-19T09:43:47;3.70;;;3.15;;
79668;SDS011;69136;52.614;6.976;2023-06-19T09:46:33;5.68;;;3.80;;
79668;SDS011;69136;52.614;6.976;2023-06-19T09:49:20;4.32;;;3.55;;
79668;SDS011;69136;52.614;6.976;2023-06-19T09:52:07;6.97;;;4.10;;
79668;SDS011;69136;52.614;6.976;2023-06-19T09:54:52;6.00;;;4.70;;
79668;SDS011;69136;52.614;6.976;2023-06-19T09:57:36;7.55;;;4.90;;
79668;SDS011;69136;52.614;6.976;2023-06-19T10:00:23;4.70;;;4.18;;
79668;SDS011;69136;52.614;6.976;2023-06-19T10:03:14;7.90;;;5.00;;
79668;SDS011;69136;52.614;6.976;2023-06-19T10:06:03;9.95;;;5.60;;
79668;SDS011;69136;52.614;6.976;2023-06-19T10:08:50;7.57;;;4.95;;
79668;SDS011;69136;52.614;6.976;2023-06-19T10:11:47;6.85;;;5.60;;
79668;SDS011;69136;52.614;6.976;2023-06-19T10:14:44;7.70;;;5.43;;
79668;SDS011;69136;52.614;6.976;2023-06-19T10:20:21;6.78;;;5.95;;
79668;SDS011;69136;52.614;6.976;2023-06-19T10:23:20;6.50;;;5.90;;
79668;SDS011;69136;52.614;6.976;2023-06-19T10:26:06;6.50;;;5.32;;
79668;SDS011;69136;52.614;6.976;2023-06-19T10:28:51;8.20;;;5.78;;
79668;SDS011;69136;52.614;6.976;2023-06-19T10:31:35;9.20;;;6.45;;
79668;SDS011;69136;52.614;6.976;2023-06-19T10:34:19;7.60;;;6.80;;
79668;SDS011;69136;52.614;6.976;2023-06-19T10:37:03;8.80;;;7.70;;
79668;SDS011;69136;52.614;6.976;2023-06-19T10:39:48;8.30;;;6.75;;
79668;SDS011;69136;52.614;6.976;2023-06-19T10:42:32;10.90;;;7.78;;
79668;SDS011;69136;52.614;6.976;2023-06-19T10:45:16;9.45;;;7.10;;
79668;SDS011;69136;52.614;6.976;2023-06-19T10:48:01;8.60;;;7.47;;
79668;SDS011;69136;52.614;6.976;2023-06-19T10:50:47;9.38;;;7.78;;
79668;SDS011;69136;52.614;6.976;2023-06-19T10:53:31;8.38;;;6.95;;
79668;SDS011;69136;52.614;6.976;2023-06-19T10:56:16;11.10;;;9.13;;
79668;SDS011;69136;52.614;6.976;2023-06-19T10:59:05;8.90;;;8.00;;
79668;SDS011;69136;52.614;6.976;2023-06-19T11:01:52;9.43;;;8.00;;
79668;SDS011;69136;52.614;6.976;2023-06-19T11:04:37;9.73;;;8.70;;
79668;SDS011;69136;52.614;6.976;2023-06-19T11:07:22;10.68;;;9.25;;
79668;SDS011;69136;52.614;6.976;2023-06-19T11:10:06;9.95;;;8.88;;
79668;SDS011;69136;52.614;6.976;2023-06-19T11:12:54;9.75;;;8.85;;
79668;SDS011;69136;52.614;6.976;2023-06-19T11:15:39;11.10;;;8.90;;
79668;SDS011;69136;52.614;6.976;2023-06-19T11:18:23;9.85;;;8.95;;
79668;SDS011;69136;52.614;6.976;2023-06-19T11:21:07;9.80;;;8.90;;
79668;SDS011;69136;52.614;6.976;2023-06-19T11:23:51;9.38;;;8.35;;
79668;SDS011;69136;52.614;6.976;2023-06-19T11:26:45;9.32;;;8.30;;
79668;SDS011;69136;52.614;6.976;2023-06-19T11:29:34;9.60;;;8.80;;
79668;SDS011;69136;52.614;6.976;2023-06-19T11:32:19;9.73;;;8.73;;
79668;SDS011;69136;52.614;6.976;2023-06-19T11:37:54;7.75;;;6.93;;
79668;SDS011;69136;52.614;6.976;2023-06-19T11:40:39;10.35;;;8.02;;
79668;SDS011;69136;52.614;6.976;2023-06-19T11:43:25;9.63;;;6.97;;
79668;SDS011;69136;52.614;6.976;2023-06-19T11:46:11;10.85;;;7.45;;
79668;SDS011;69136;52.614;6.976;2023-06-19T11:48:56;10.95;;;8.10;;
79668;SDS011;69136;52.614;6.976;2023-06-19T11:51:50;9.45;;;7.63;;
79668;SDS011;69136;52.614;6.976;2023-06-19T11:54:34;8.60;;;7.70;;
79668;SDS011;69136;52.614;6.976;2023-06-19T11:57:18;11.15;;;8.60;;
79668;SDS011;69136;52.614;6.976;2023-06-19T12:00:02;10.45;;;7.68;;
79668;SDS011;69136;52.614;6.976;2023-06-19T12:02:56;10.60;;;8.50;;
79668;SDS011;69136;52.614;6.976;2023-06-19T12:05:42;9.13;;;8.20;;
79668;SDS011;69136;52.614;6.976;2023-06-19T12:08:26;8.63;;;7.72;;
79668;SDS011;69136;52.614;6.976;2023-06-19T12:11:10;11.57;;;7.18;;
79668;SDS011;69136;52.614;6.976;2023-06-19T12:13:56;9.25;;;8.27;;
79668;SDS011;69136;52.614;6.976;2023-06-19T12:16:41;9.77;;;8.77;;
79668;SDS011;69136;52.614;6.976;2023-06-19T12:19:25;17.33;;;8.50;;
79668;SDS011;69136;52.614;6.976;2023-06-19T12:22:11;11.15;;;8.65;;
79668;SDS011;69136;52.614;6.976;2023-06-19T12:24:55;9.30;;;8.35;;
79668;SDS011;69136;52.614;6.976;2023-06-19T12:27:39;9.93;;;9.02;;
79668;SDS011;69136;52.614;6.976;2023-06-19T12:30:24;10.15;;;7.95;;
79668;SDS011;69136;52.614;6.976;2023-06-19T12:33:08;10.52;;;8.48;;
79668;SDS011;69136;52.614;6.976;2023-06-19T12:35:53;12.30;;;9.65;;
79668;SDS011;69136;52.614;6.976;2023-06-19T12:38:37;11.00;;;8.93;;
79668;SDS011;69136;52.614;6.976;2023-06-19T12:41:22;10.00;;;8.52;;
79668;SDS011;69136;52.614;6.976;2023-06-19T12:44:06;8.85;;;8.05;;
79668;SDS011;69136;52.614;6.976;2023-06-19T12:46:50;8.43;;;7.53;;
79668;SDS011;69136;52.614;6.976;2023-06-19T12:49:34;9.40;;;8.35;;
79668;SDS011;69136;52.614;6.976;2023-06-19T12:52:18;10.40;;;8.52;;
79668;SDS011;69136;52.614;6.976;2023-06-19T12:55:02;10.00;;;7.82;;
79668;SDS011;69136;52.614;6.976;2023-06-19T12:57:47;10.40;;;8.02;;
79668;SDS011;69136;52.614;6.976;2023-06-19T13:00:31;8.90;;;7.72;;
79668;SDS011;69136;52.614;6.976;2023-06-19T13:03:15;10.20;;;9.10;;
79668;SDS011;69136;52.614;6.976;2023-06-19T13:05:59;13.68;;;8.98;;
79668;SDS011;69136;52.614;6.976;2023-06-19T13:08:43;11.13;;;9.32;;
79668;SDS011;69136;52.614;6.976;2023-06-19T13:11:28;10.85;;;9.10;;
79668;SDS011;69136;52.614;6.976;2023-06-19T13:14:13;11.55;;;9.10;;
79668;SDS011;69136;52.614;6.976;2023-06-19T13:16:57;10.75;;;9.65;;
79668;SDS011;69136;52.614;6.976;2023-06-19T13:19:41;10.27;;;8.60;;
79668;SDS011;69136;52.614;6.976;2023-06-19T13:22:25;11.95;;;9.82;;
79668;SDS011;69136;52.614;6.976;2023-06-19T13:25:10;12.70;;;9.75;;
79668;SDS011;69136;52.614;6.976;2023-06-19T13:27:54;8.63;;;7.65;;
79668;SDS011;69136;52.614;6.976;2023-06-19T13:30:38;8.93;;;8.02;;
79668;SDS011;69136;52.614;6.976;2023-06-19T13:33:22;9.20;;;7.90;;
79668;SDS011;69136;52.614;6.976;2023-06-19T13:36:06;9.95;;;8.68;;
79668;SDS011;69136;52.614;6.976;2023-06-19T13:38:50;10.75;;;7.97;;
79668;SDS011;69136;52.614;6.976;2023-06-19T13:41:35;10.98;;;8.07;;
79668;SDS011;69136;52.614;6.976;2023-06-19T13:44:19;9.40;;;8.40;;
79668;SDS011;69136;52.614;6.976;2023-06-19T13:47:03;11.45;;;9.32;;
79668;SDS011;69136;52.614;6.976;2023-06-19T13:49:48;11.65;;;9.13;;
79668;SDS011;69136;52.614;6.976;2023-06-19T13:52:32;11.00;;;8.18;;
79668;SDS011;69136;52.614;6.976;2023-06-19T13:55:16;9.02;;;8.10;;
79668;SDS011;69136;52.614;6.976;2023-06-19T13:58:00;9.82;;;8.82;;
79668;SDS011;69136;52.614;6.976;2023-06-19T14:00:44;11.38;;;7.97;;
79668;SDS011;69136;52.614;6.976;2023-06-19T14:03:28;11.48;;;7.55;;
79668;SDS011;69136;52.614;6.976;2023-06-19T14:06:12;9.80;;;8.50;;
79668;SDS011;69136;52.614;6.976;2023-06-19T14:08:56;10.43;;;8.23;;
79668;SDS011;69136;52.614;6.976;2023-06-19T14:11:40;9.40;;;8.43;;
79668;SDS011;69136;52.614;6.976;2023-06-19T14:14:24;10.05;;;8.02;;
79668;SDS011;69136;52.614;6.976;2023-06-19T14:17:07;13.70;;;8.93;;
79668;SDS011;69136;52.614;6.976;2023-06-19T14:19:51;8.77;;;6.85;;
79668;SDS011;69136;52.614;6.976;2023-06-19T14:22:35;10.20;;;7.82;;
79668;SDS011;69136;52.614;6.976;2023-06-19T14:25:19;10.70;;;7.65;;
79668;SDS011;69136;52.614;6.976;2023-06-19T14:28:03;8.27;;;7.45;;
79668;SDS011;69136;52.614;6.976;2023-06-19T14:30:48;10.43;;;8.20;;
79668;SDS011;69136;52.614;6.976;2023-06-19T14:33:32;7.07;;;6.28;;
79668;SDS011;69136;52.614;6.976;2023-06-19T14:36:18;11.40;;;8.50;;
79668;SDS011;69136;52.614;6.976;2023-06-19T14:39:02;9.57;;;8.55;;
79668;SDS011;69136;52.614;6.976;2023-06-19T14:41:47;8.98;;;7.68;;
79668;SDS011;69136;52.614;6.976;2023-06-19T14:44:31;8.32;;;7.43;;
79668;SDS011;69136;52.614;6.976;2023-06-19T14:47:16;8.93;;;8.00;;
79668;SDS011;69136;52.614;6.976;2023-06-19T14:50:00;8.82;;;7.93;;
79668;SDS011;69136;52.614;6.976;2023-06-19T14:52:44;10.23;;;8.88;;
79668;SDS011;69136;52.614;6.976;2023-06-19T14:55:28;10.38;;;8.63;;
79668;SDS011;69136;52.614;6.976;2023-06-19T14:58:13;10.05;;;7.97;;
79668;SDS011;69136;52.614;6.976;2023-06-19T15:00:57;10.38;;;8.27;;
79668;SDS011;69136;52.614;6.976;2023-06-19T15:03:42;9.98;;;8.98;;
79668;SDS011;69136;52.614;6.976;2023-06-19T15:06:26;11.32;;;8.18;;
79668;SDS011;69136;52.614;6.976;2023-06-19T15:09:10;9.48;;;8.57;;
79668;SDS011;69136;52.614;6.976;2023-06-19T15:11:54;11.50;;;9.90;;
79668;SDS011;69136;52.614;6.976;2023-06-19T15:14:38;10.50;;;8.93;;
79668;SDS011;69136;52.614;6.976;2023-06-19T15:17:22;10.52;;;9.43;;
79668;SDS011;69136;52.614;6.976;2023-06-19T15:20:06;12.48;;;10.38;;
79668;SDS011;69136;52.614;6.976;2023-06-19T15:22:51;9.90;;;8.88;;
79668;SDS011;69136;52.614;6.976;2023-06-19T15:25:35;11.75;;;9.48;;
79668;SDS011;69136;52.614;6.976;2023-06-19T15:28:19;13.52;;;10.45;;
79668;SDS011;69136;52.614;6.976;2023-06-19T15:31:03;10.95;;;9.15;;
79668;SDS011;69136;52.614;6.976;2023-06-19T15:33:49;11.77;;;8.85;;
79668;SDS011;69136;52.614;6.976;2023-06-19T15:36:33;9.35;;;8.27;;
79668;SDS011;69136;52.614;6.976;2023-06-19T15:39:17;10.80;;;8.10;;
79668;SDS011;69136;52.614;6.976;2023-06-19T15:42:01;8.00;;;6.97;;
79668;SDS011;69136;52.614;6.976;2023-06-19T15:44:45;9.43;;;6.95;;
79668;SDS011;69136;52.614;6.976;2023-06-19T15:47:29;9.43;;;6.30;;
79668;SDS011;69136;52.614;6.976;2023-06-19T15:50:16;11.02;;;7.18;;
79668;SDS011;69136;52.614;6.976;2023-06-19T15:53:00;9.05;;;7.15;;
79668;SDS011;69136;52.614;6.976;2023-06-19T15:55:45;9.25;;;6.85;;
79668;SDS011;69136;52.614;6.976;2023-06-19T15:58:29;11.35;;;7.68;;
79668;SDS011;69136;52.614;6.976;2023-06-19T16:01:13;9.80;;;7.60;;
79668;SDS011;69136;52.614;6.976;2023-06-19T16:03:57;7.47;;;6.35;;
79668;SDS011;69136;52.614;6.976;2023-06-19T16:06:42;10.02;;;6.93;;
79668;SDS011;69136;52.614;6.976;2023-06-19T16:09:28;9.90;;;6.75;;
79668;SDS011;69136;52.614;6.976;2023-06-19T16:12:12;10.55;;;7.80;;
79668;SDS011;69136;52.614;6.976;2023-06-19T16:14:56;8.60;;;7.28;;
79668;SDS011;69136;52.614;6.976;2023-06-19T16:17:40;7.65;;;6.47;;
79668;SDS011;69136;52.614;6.976;2023-06-19T16:20:24;7.95;;;6.32;;
79668;SDS011;69136;52.614;6.976;2023-06-19T16:23:08;10.60;;;6.22;;
79668;SDS011;69136;52.614;6.976;2023-06-19T16:25:52;7.55;;;6.43;;
79668;SDS011;69136;52.614;6.976;2023-06-19T16:28:36;12.10;;;7.47;;
79668;SDS011;69136;52.614;6.976;2023-06-19T16:31:20;7.05;;;6.30;;
79668;SDS011;69136;52.614;6.976;2023-06-19T16:34:04;7.60;;;6.07;;
79668;SDS011;69136;52.614;6.976;2023-06-19T16:36:49;7.40;;;6.18;;